Airfield :
LOGIN :

Register | Disclaimer

   EN    FR    IT 

 










Legend :    VFR   Marginal VFR   IFR   Intensive IFR   Very Intensive IFR
Visi :
Ceiling :
>= 8 km
>= 3000ft
5 to 8 km
1000 to 3000 ft
1500m to 5 km
500 to 1000 ft
800 to 1500m
200 to 500 ft
< 800m
< 200 ft
Symbols :   Thunderstorms  Fog  Heavy snow  Heavy precipitations  Wind > 20 kt
SIGMETs :     Misc.  Thunderstorms  Icing  Turbulence  Mountain Waves  Volcanic Ashes







- Airport Elevation : 24 ft
- IATA code : IBZ


LEIB - Ibiza

CURRENT METAR :
  • 190230Z AUTO 34004KT CAVOK 07/06 Q1016

EXPIRED METARs :
  • 190200Z AUTO 01004KT CAVOK 08/06 Q1016
  • 190130Z AUTO 03008KT 9999 FEW003/// 08/06 Q1016
  • 190100Z AUTO 02010KT 340V050 9999 +SHRA FEW020/// SCT023/// BKN030/// ///TCU 08/07 Q1016
  • 190030Z AUTO 06003KT 030V100 9999 SCT024/// BKN032/// BKN039/// 08/06 Q1016
  • 190000Z AUTO 36003KT 330V030 9999 FEW023 SCT027 ///CB 08/06 Q1016 RETS

TAF TAF LEIB
Valid from the 19 at 03:00 until the 20 at 03:00 UTC


190200Z 1903/2003 36007KT 9999 FEW020 SCT030 TX15/1912Z TN05/1906Z
TEMPO 1911/1916 VRB03KT
BECMG 1916/1918 20012KT
No reported NOTAMs for that airfield.



MET'MAP, your aeronautical weather chart ! - Copyright ORBIFLY December 2007 - Disclaimer

ORBIFLY MET'MAP TEAM :

Programming & Development : Alexandra Zaïnal
Concept & Development : Baudouin d'Aumeries
Co-Development & Prog : Marc-Olivier Méhu
Technical & hardware support : Manuel Goepfert

Contact : metmap@orbifly.com




SOURCES & CREDITS :

   NOAA